sensor_id;sensor_type;location;lat;lon;timestamp;temperature;humidity
10089;DHT22;51898;49.864;8.550;2023-06-04T00:00:05;14.70;48.90
10089;DHT22;51898;49.864;8.550;2023-06-04T00:03:08;14.60;49.00
10089;DHT22;51898;49.864;8.550;2023-06-04T00:06:10;14.50;49.20
10089;DHT22;51898;49.864;8.550;2023-06-04T00:09:11;14.50;49.40
10089;DHT22;51898;49.864;8.550;2023-06-04T00:12:13;14.40;49.50
10089;DHT22;51898;49.864;8.550;2023-06-04T00:15:15;14.40;49.60
10089;DHT22;51898;49.864;8.550;2023-06-04T00:18:17;14.40;49.70
10089;DHT22;51898;49.864;8.550;2023-06-04T00:21:19;14.40;49.70
10089;DHT22;51898;49.864;8.550;2023-06-04T00:24:21;14.30;49.60
10089;DHT22;51898;49.864;8.550;2023-06-04T00:27:23;14.20;49.90
10089;DHT22;51898;49.864;8.550;2023-06-04T00:30:25;14.20;49.90
10089;DHT22;51898;49.864;8.550;2023-06-04T00:33:27;14.10;50.00
10089;DHT22;51898;49.864;8.550;2023-06-04T00:36:28;14.10;50.00
10089;DHT22;51898;49.864;8.550;2023-06-04T00:39:30;14.00;50.20
10089;DHT22;51898;49.864;8.550;2023-06-04T00:42:32;14.00;50.00
10089;DHT22;51898;49.864;8.550;2023-06-04T00:45:33;14.00;50.20
10089;DHT22;51898;49.864;8.550;2023-06-04T00:48:35;13.90;50.20
10089;DHT22;51898;49.864;8.550;2023-06-04T00:51:38;13.90;50.00
10089;DHT22;51898;49.864;8.550;2023-06-04T00:54:40;13.90;50.10
10089;DHT22;51898;49.864;8.550;2023-06-04T00:57:42;13.80;50.20
10089;DHT22;51898;49.864;8.550;2023-06-04T01:04:02;13.80;50.10
10089;DHT22;51898;49.864;8.550;2023-06-04T01:07:04;13.80;49.90
10089;DHT22;51898;49.864;8.550;2023-06-04T01:10:08;13.80;50.00
10089;DHT22;51898;49.864;8.550;2023-06-04T01:13:10;13.80;50.00
10089;DHT22;51898;49.864;8.550;2023-06-04T01:16:13;13.70;50.20
10089;DHT22;51898;49.864;8.550;2023-06-04T01:19:39;13.70;50.10
10089;DHT22;51898;49.864;8.550;2023-06-04T01:23:01;13.70;50.20
10089;DHT22;51898;49.864;8.550;2023-06-04T01:26:06;13.60;50.30
10089;DHT22;51898;49.864;8.550;2023-06-04T01:29:07;13.60;50.40
10089;DHT22;51898;49.864;8.550;2023-06-04T01:32:11;13.60;50.50
10089;DHT22;51898;49.864;8.550;2023-06-04T01:35:13;13.50;50.70
10089;DHT22;51898;49.864;8.550;2023-06-04T01:38:15;13.50;50.70
10089;DHT22;51898;49.864;8.550;2023-06-04T01:41:17;13.40;51.00
10089;DHT22;51898;49.864;8.550;2023-06-04T01:44:19;13.30;51.10
10089;DHT22;51898;49.864;8.550;2023-06-04T01:47:20;13.30;51.10
10089;DHT22;51898;49.864;8.550;2023-06-04T01:50:22;13.30;51.20
10089;DHT22;51898;49.864;8.550;2023-06-04T01:53:24;13.20;51.40
10089;DHT22;51898;49.864;8.550;2023-06-04T01:56:26;13.20;51.50
10089;DHT22;51898;49.864;8.550;2023-06-04T01:59:28;13.20;51.70
10089;DHT22;51898;49.864;8.550;2023-06-04T02:02:29;13.10;51.70
10089;DHT22;51898;49.864;8.550;2023-06-04T02:05:31;13.10;52.00
10089;DHT22;51898;49.864;8.550;2023-06-04T02:08:34;13.00;52.00
10089;DHT22;51898;49.864;8.550;2023-06-04T02:11:35;13.00;52.20
10089;DHT22;51898;49.864;8.550;2023-06-04T02:14:37;12.90;52.30
10089;DHT22;51898;49.864;8.550;2023-06-04T02:17:39;12.90;52.50
10089;DHT22;51898;49.864;8.550;2023-06-04T02:20:42;12.80;52.70
10089;DHT22;51898;49.864;8.550;2023-06-04T02:23:45;12.80;52.80
10089;DHT22;51898;49.864;8.550;2023-06-04T02:26:46;12.80;52.90
10089;DHT22;51898;49.864;8.550;2023-06-04T02:29:48;12.80;53.00
10089;DHT22;51898;49.864;8.550;2023-06-04T02:32:50;12.70;53.20
10089;DHT22;51898;49.864;8.550;2023-06-04T02:35:53;12.70;53.50
10089;DHT22;51898;49.864;8.550;2023-06-04T02:38:55;12.60;53.80
10089;DHT22;51898;49.864;8.550;2023-06-04T02:41:57;12.50;54.10
10089;DHT22;51898;49.864;8.550;2023-06-04T02:44:58;12.50;54.20
10089;DHT22;51898;49.864;8.550;2023-06-04T02:48:00;12.40;54.40
10089;DHT22;51898;49.864;8.550;2023-06-04T02:51:02;12.40;54.50
10089;DHT22;51898;49.864;8.550;2023-06-04T02:54:04;12.30;54.70
10089;DHT22;51898;49.864;8.550;2023-06-04T02:57:06;12.20;54.80
10089;DHT22;51898;49.864;8.550;2023-06-04T03:00:09;12.30;54.80
10089;DHT22;51898;49.864;8.550;2023-06-04T03:03:13;12.20;54.80
10089;DHT22;51898;49.864;8.550;2023-06-04T03:06:16;12.20;55.00
10089;DHT22;51898;49.864;8.550;2023-06-04T03:09:18;12.10;54.90
10089;DHT22;51898;49.864;8.550;2023-06-04T03:12:20;12.10;55.00
10089;DHT22;51898;49.864;8.550;2023-06-04T03:15:22;12.10;55.00
10089;DHT22;51898;49.864;8.550;2023-06-04T03:18:23;12.10;55.00
10089;DHT22;51898;49.864;8.550;2023-06-04T03:21:25;12.10;55.10
10089;DHT22;51898;49.864;8.550;2023-06-04T03:24:27;12.10;55.10
10089;DHT22;51898;49.864;8.550;2023-06-04T03:27:31;12.10;55.10
10089;DHT22;51898;49.864;8.550;2023-06-04T03:30:32;12.10;55.10
10089;DHT22;51898;49.864;8.550;2023-06-04T03:33:34;12.10;55.10
10089;DHT22;51898;49.864;8.550;2023-06-04T03:36:36;12.10;55.20
10089;DHT22;51898;49.864;8.550;2023-06-04T03:39:39;12.10;55.10
10089;DHT22;51898;49.864;8.550;2023-06-04T03:42:41;12.10;55.20
10089;DHT22;51898;49.864;8.550;2023-06-04T03:45:43;12.10;55.30
10089;DHT22;51898;49.864;8.550;2023-06-04T03:48:44;12.20;55.10
10089;DHT22;51898;49.864;8.550;2023-06-04T03:51:46;12.30;55.00
10089;DHT22;51898;49.864;8.550;2023-06-04T03:54:48;12.40;54.70
10089;DHT22;51898;49.864;8.550;2023-06-04T03:57:49;12.60;54.40
10089;DHT22;51898;49.864;8.550;2023-06-04T04:00:51;12.70;54.10
10089;DHT22;51898;49.864;8.550;2023-06-04T04:03:52;12.90;53.90
10089;DHT22;51898;49.864;8.550;2023-06-04T04:06:54;13.10;53.60
10089;DHT22;51898;49.864;8.550;2023-06-04T04:09:56;13.40;52.90
10089;DHT22;51898;49.864;8.550;2023-06-04T04:12:58;13.60;52.00
10089;DHT22;51898;49.864;8.550;2023-06-04T04:16:00;14.00;51.00
10089;DHT22;51898;49.864;8.550;2023-06-04T04:19:01;14.30;50.20
10089;DHT22;51898;49.864;8.550;2023-06-04T04:22:03;14.70;49.50
10089;DHT22;51898;49.864;8.550;2023-06-04T04:25:05;14.90;49.00
10089;DHT22;51898;49.864;8.550;2023-06-04T04:28:09;15.00;48.70
10089;DHT22;51898;49.864;8.550;2023-06-04T04:31:10;15.20;48.50
10089;DHT22;51898;49.864;8.550;2023-06-04T04:34:12;15.30;48.50
10089;DHT22;51898;49.864;8.550;2023-06-04T04:37:14;15.50;48.30
10089;DHT22;51898;49.864;8.550;2023-06-04T04:40:15;15.60;48.10
10089;DHT22;51898;49.864;8.550;2023-06-04T04:43:32;15.60;47.80
10089;DHT22;51898;49.864;8.550;2023-06-04T04:46:34;15.50;47.70
10089;DHT22;51898;49.864;8.550;2023-06-04T04:49:36;15.90;47.30
10089;DHT22;51898;49.864;8.550;2023-06-04T04:52:37;15.90;47.40
10089;DHT22;51898;49.864;8.550;2023-06-04T04:55:39;15.90;47.90
10089;DHT22;51898;49.864;8.550;2023-06-04T04:58:41;16.00;47.30
10089;DHT22;51898;49.864;8.550;2023-06-04T05:01:43;15.90;47.30
10089;DHT22;51898;49.864;8.550;2023-06-04T05:04:45;15.90;47.10
10089;DHT22;51898;49.864;8.550;2023-06-04T05:07:46;15.70;47.90
10089;DHT22;51898;49.864;8.550;2023-06-04T05:10:50;15.90;47.70
10089;DHT22;51898;49.864;8.550;2023-06-04T05:13:52;15.80;48.00
10089;DHT22;51898;49.864;8.550;2023-06-04T05:16:53;15.80;47.90
10089;DHT22;51898;49.864;8.550;2023-06-04T05:19:57;15.80;48.10
10089;DHT22;51898;49.864;8.550;2023-06-04T05:23:13;15.70;48.30
10089;DHT22;51898;49.864;8.550;2023-06-04T05:26:15;15.70;48.00
10089;DHT22;51898;49.864;8.550;2023-06-04T05:29:17;15.70;48.50
10089;DHT22;51898;49.864;8.550;2023-06-04T05:32:18;15.60;48.10
10089;DHT22;51898;49.864;8.550;2023-06-04T05:35:20;15.50;48.40
10089;DHT22;51898;49.864;8.550;2023-06-04T05:38:22;15.50;48.50
10089;DHT22;51898;49.864;8.550;2023-06-04T05:41:27;15.50;48.60
10089;DHT22;51898;49.864;8.550;2023-06-04T05:44:29;15.70;48.10
10089;DHT22;51898;49.864;8.550;2023-06-04T05:47:31;15.80;47.90
10089;DHT22;51898;49.864;8.550;2023-06-04T05:50:33;15.90;47.90
10089;DHT22;51898;49.864;8.550;2023-06-04T05:53:34;16.00;47.40
10089;DHT22;51898;49.864;8.550;2023-06-04T05:56:36;16.10;47.40
10089;DHT22;51898;49.864;8.550;2023-06-04T05:59:38;16.40;47.00
10089;DHT22;51898;49.864;8.550;2023-06-04T06:02:39;16.40;46.20
10089;DHT22;51898;49.864;8.550;2023-06-04T06:05:42;16.50;45.70
10089;DHT22;51898;49.864;8.550;2023-06-04T06:08:44;16.50;46.10
10089;DHT22;51898;49.864;8.550;2023-06-04T06:11:45;16.60;45.50
10089;DHT22;51898;49.864;8.550;2023-06-04T06:14:47;16.50;44.80
10089;DHT22;51898;49.864;8.550;2023-06-04T06:17:49;16.50;44.50
10089;DHT22;51898;49.864;8.550;2023-06-04T06:20:51;16.70;44.20
10089;DHT22;51898;49.864;8.550;2023-06-04T06:23:54;17.00;43.30
10089;DHT22;51898;49.864;8.550;2023-06-04T06:26:55;17.10;43.30
10089;DHT22;51898;49.864;8.550;2023-06-04T06:29:57;17.10;42.90
10089;DHT22;51898;49.864;8.550;2023-06-04T06:32:59;17.20;42.50
10089;DHT22;51898;49.864;8.550;2023-06-04T06:36:01;17.20;42.70
10089;DHT22;51898;49.864;8.550;2023-06-04T06:39:02;17.30;42.90
10089;DHT22;51898;49.864;8.550;2023-06-04T06:42:04;17.40;42.40
10089;DHT22;51898;49.864;8.550;2023-06-04T06:45:06;17.60;42.90
10089;DHT22;51898;49.864;8.550;2023-06-04T06:48:08;17.80;42.00
10089;DHT22;51898;49.864;8.550;2023-06-04T06:51:10;17.90;41.60
10089;DHT22;51898;49.864;8.550;2023-06-04T06:54:14;18.00;41.50
10089;DHT22;51898;49.864;8.550;2023-06-04T06:57:16;18.20;41.40
10089;DHT22;51898;49.864;8.550;2023-06-04T07:00:18;18.50;41.10
10089;DHT22;51898;49.864;8.550;2023-06-04T07:03:20;18.70;41.00
10089;DHT22;51898;49.864;8.550;2023-06-04T07:06:22;19.10;39.70
10089;DHT22;51898;49.864;8.550;2023-06-04T07:09:23;19.20;39.40
10089;DHT22;51898;49.864;8.550;2023-06-04T07:12:25;19.20;38.50
10089;DHT22;51898;49.864;8.550;2023-06-04T07:15:26;19.20;38.00
10089;DHT22;51898;49.864;8.550;2023-06-04T07:18:28;19.10;38.30
10089;DHT22;51898;49.864;8.550;2023-06-04T07:21:30;19.20;38.10
10089;DHT22;51898;49.864;8.550;2023-06-04T07:24:31;19.40;37.90
10089;DHT22;51898;49.864;8.550;2023-06-04T07:27:34;19.50;37.80
10089;DHT22;51898;49.864;8.550;2023-06-04T07:30:35;19.60;38.00
10089;DHT22;51898;49.864;8.550;2023-06-04T07:33:38;19.50;37.80
10089;DHT22;51898;49.864;8.550;2023-06-04T07:36:44;19.60;37.80
10089;DHT22;51898;49.864;8.550;2023-06-04T07:39:46;19.60;38.00
10089;DHT22;51898;49.864;8.550;2023-06-04T07:42:48;19.80;38.00
10089;DHT22;51898;49.864;8.550;2023-06-04T07:45:49;19.90;37.90
10089;DHT22;51898;49.864;8.550;2023-06-04T07:48:51;20.10;37.70
10089;DHT22;51898;49.864;8.550;2023-06-04T07:51:53;20.10;37.70
10089;DHT22;51898;49.864;8.550;2023-06-04T07:54:54;20.10;37.60
10089;DHT22;51898;49.864;8.550;2023-06-04T07:57:56;20.20;37.60
10089;DHT22;51898;49.864;8.550;2023-06-04T08:00:58;20.30;37.90
10089;DHT22;51898;49.864;8.550;2023-06-04T08:04:00;20.40;37.90
10089;DHT22;51898;49.864;8.550;2023-06-04T08:07:02;20.50;37.70
10089;DHT22;51898;49.864;8.550;2023-06-04T08:10:04;20.60;37.10
10089;DHT22;51898;49.864;8.550;2023-06-04T08:13:06;20.50;37.90
10089;DHT22;51898;49.864;8.550;2023-06-04T08:16:09;20.50;38.20
10089;DHT22;51898;49.864;8.550;2023-06-04T08:19:11;20.50;38.40
10089;DHT22;51898;49.864;8.550;2023-06-04T08:22:14;20.60;37.90
10089;DHT22;51898;49.864;8.550;2023-06-04T08:25:16;20.60;37.90
10089;DHT22;51898;49.864;8.550;2023-06-04T08:28:17;20.60;38.40
10089;DHT22;51898;49.864;8.550;2023-06-04T08:31:20;20.70;38.20
10089;DHT22;51898;49.864;8.550;2023-06-04T08:34:23;20.80;37.60
10089;DHT22;51898;49.864;8.550;2023-06-04T08:37:24;20.80;38.00
10089;DHT22;51898;49.864;8.550;2023-06-04T08:40:26;20.80;38.40
10089;DHT22;51898;49.864;8.550;2023-06-04T08:43:29;20.90;37.90
10089;DHT22;51898;49.864;8.550;2023-06-04T08:46:32;21.20;37.90
10089;DHT22;51898;49.864;8.550;2023-06-04T08:49:40;21.40;37.60
10089;DHT22;51898;49.864;8.550;2023-06-04T08:52:44;21.60;36.40
10089;DHT22;51898;49.864;8.550;2023-06-04T08:55:46;21.80;36.70
10089;DHT22;51898;49.864;8.550;2023-06-04T08:58:51;22.00;37.00
10089;DHT22;51898;49.864;8.550;2023-06-04T09:01:54;22.10;35.80
10089;DHT22;51898;49.864;8.550;2023-06-04T09:04:56;22.30;36.20
10089;DHT22;51898;49.864;8.550;2023-06-04T09:08:00;22.30;35.20
10089;DHT22;51898;49.864;8.550;2023-06-04T09:11:08;22.50;35.40
10089;DHT22;51898;49.864;8.550;2023-06-04T09:14:14;22.70;34.30
10089;DHT22;51898;49.864;8.550;2023-06-04T09:17:24;22.70;34.70
10089;DHT22;51898;49.864;8.550;2023-06-04T09:20:27;22.60;34.90
10089;DHT22;51898;49.864;8.550;2023-06-04T09:23:29;22.50;34.40
10089;DHT22;51898;49.864;8.550;2023-06-04T09:26:31;22.30;34.30
10089;DHT22;51898;49.864;8.550;2023-06-04T09:29:33;22.20;34.70
10089;DHT22;51898;49.864;8.550;2023-06-04T09:32:35;22.30;34.50
10089;DHT22;51898;49.864;8.550;2023-06-04T09:35:37;22.50;34.20
10089;DHT22;51898;49.864;8.550;2023-06-04T09:38:39;22.50;33.90
10089;DHT22;51898;49.864;8.550;2023-06-04T09:41:40;22.60;34.70
10089;DHT22;51898;49.864;8.550;2023-06-04T09:44:43;22.60;34.60
10089;DHT22;51898;49.864;8.550;2023-06-04T09:47:47;22.60;35.00
10089;DHT22;51898;49.864;8.550;2023-06-04T09:50:49;22.50;35.00
10089;DHT22;51898;49.864;8.550;2023-06-04T09:53:55;22.50;34.90
10089;DHT22;51898;49.864;8.550;2023-06-04T09:56:57;22.60;34.70
10089;DHT22;51898;49.864;8.550;2023-06-04T09:59:59;22.80;34.70
10089;DHT22;51898;49.864;8.550;2023-06-04T10:03:02;22.90;34.00
10089;DHT22;51898;49.864;8.550;2023-06-04T10:06:05;23.10;33.50
10089;DHT22;51898;49.864;8.550;2023-06-04T10:09:08;23.30;32.70
10089;DHT22;51898;49.864;8.550;2023-06-04T10:12:13;23.50;31.30
10089;DHT22;51898;49.864;8.550;2023-06-04T10:15:17;23.50;31.90
10089;DHT22;51898;49.864;8.550;2023-06-04T10:18:19;23.60;31.80
10089;DHT22;51898;49.864;8.550;2023-06-04T10:21:23;23.60;31.80
10089;DHT22;51898;49.864;8.550;2023-06-04T10:24:25;23.90;32.10
10089;DHT22;51898;49.864;8.550;2023-06-04T10:27:28;24.00;30.40
10089;DHT22;51898;49.864;8.550;2023-06-04T10:30:31;24.20;31.30
10089;DHT22;51898;49.864;8.550;2023-06-04T10:33:33;24.20;31.50
10089;DHT22;51898;49.864;8.550;2023-06-04T10:36:43;24.20;31.70
10089;DHT22;51898;49.864;8.550;2023-06-04T10:39:54;24.20;30.70
10089;DHT22;51898;49.864;8.550;2023-06-04T10:42:56;24.00;31.00
10089;DHT22;51898;49.864;8.550;2023-06-04T10:45:58;24.00;30.70
10089;DHT22;51898;49.864;8.550;2023-06-04T10:49:00;23.90;30.60
10089;DHT22;51898;49.864;8.550;2023-06-04T10:52:10;24.10;30.70
10089;DHT22;51898;49.864;8.550;2023-06-04T10:55:12;24.30;30.90
10089;DHT22;51898;49.864;8.550;2023-06-04T10:58:13;24.70;30.10
10089;DHT22;51898;49.864;8.550;2023-06-04T11:01:26;24.80;29.60
10089;DHT22;51898;49.864;8.550;2023-06-04T11:04:29;24.80;29.70
10089;DHT22;51898;49.864;8.550;2023-06-04T11:07:45;24.90;29.80
10089;DHT22;51898;49.864;8.550;2023-06-04T11:10:47;25.00;30.00
10089;DHT22;51898;49.864;8.550;2023-06-04T11:13:48;24.90;29.60
10089;DHT22;51898;49.864;8.550;2023-06-04T11:16:50;24.80;29.70
10089;DHT22;51898;49.864;8.550;2023-06-04T11:19:51;25.00;29.30
10089;DHT22;51898;49.864;8.550;2023-06-04T11:22:57;24.80;28.60
10089;DHT22;51898;49.864;8.550;2023-06-04T11:26:01;24.80;29.00
10089;DHT22;51898;49.864;8.550;2023-06-04T11:29:06;25.10;28.70
10089;DHT22;51898;49.864;8.550;2023-06-04T11:32:08;25.20;28.40
10089;DHT22;51898;49.864;8.550;2023-06-04T11:35:10;24.90;28.50
10089;DHT22;51898;49.864;8.550;2023-06-04T11:38:14;25.20;28.10
10089;DHT22;51898;49.864;8.550;2023-06-04T11:41:16;24.90;28.10
10089;DHT22;51898;49.864;8.550;2023-06-04T11:44:19;24.90;28.70
10089;DHT22;51898;49.864;8.550;2023-06-04T11:47:21;24.90;28.60
10089;DHT22;51898;49.864;8.550;2023-06-04T11:50:26;24.90;28.70
10089;DHT22;51898;49.864;8.550;2023-06-04T11:53:28;25.10;27.70
10089;DHT22;51898;49.864;8.550;2023-06-04T11:56:30;25.20;28.10
10089;DHT22;51898;49.864;8.550;2023-06-04T11:59:32;25.40;27.40
10089;DHT22;51898;49.864;8.550;2023-06-04T12:02:34;25.50;27.60
10089;DHT22;51898;49.864;8.550;2023-06-04T12:05:36;25.40;27.60
10089;DHT22;51898;49.864;8.550;2023-06-04T12:11:49;25.70;26.50
10089;DHT22;51898;49.864;8.550;2023-06-04T12:15:00;25.90;27.10
10089;DHT22;51898;49.864;8.550;2023-06-04T12:18:02;25.70;26.30
10089;DHT22;51898;49.864;8.550;2023-06-04T12:21:17;25.30;27.50
10089;DHT22;51898;49.864;8.550;2023-06-04T12:24:18;25.00;28.00
10089;DHT22;51898;49.864;8.550;2023-06-04T12:27:21;25.00;27.80
10089;DHT22;51898;49.864;8.550;2023-06-04T12:30:38;25.20;27.80
10089;DHT22;51898;49.864;8.550;2023-06-04T12:33:41;25.60;28.00
10089;DHT22;51898;49.864;8.550;2023-06-04T12:36:42;25.50;27.40
10089;DHT22;51898;49.864;8.550;2023-06-04T12:39:44;25.50;27.00
10089;DHT22;51898;49.864;8.550;2023-06-04T12:42:46;25.60;26.30
10089;DHT22;51898;49.864;8.550;2023-06-04T12:45:51;25.70;26.40
10089;DHT22;51898;49.864;8.550;2023-06-04T12:48:54;25.70;26.30
10089;DHT22;51898;49.864;8.550;2023-06-04T12:51:55;26.20;26.20
10089;DHT22;51898;49.864;8.550;2023-06-04T12:54:57;26.30;26.20
10089;DHT22;51898;49.864;8.550;2023-06-04T12:57:59;26.00;25.70
10089;DHT22;51898;49.864;8.550;2023-06-04T13:01:01;26.00;26.80
10089;DHT22;51898;49.864;8.550;2023-06-04T13:04:04;26.00;26.70
10089;DHT22;51898;49.864;8.550;2023-06-04T13:07:06;26.10;26.60
10089;DHT22;51898;49.864;8.550;2023-06-04T13:10:07;26.10;26.40
10089;DHT22;51898;49.864;8.550;2023-06-04T13:13:09;25.90;25.80
10089;DHT22;51898;49.864;8.550;2023-06-04T13:16:11;26.00;25.40
10089;DHT22;51898;49.864;8.550;2023-06-04T13:19:12;26.20;25.20
10089;DHT22;51898;49.864;8.550;2023-06-04T13:22:14;26.00;25.10
10089;DHT22;51898;49.864;8.550;2023-06-04T13:25:16;26.20;25.00
10089;DHT22;51898;49.864;8.550;2023-06-04T13:28:17;26.30;25.40
10089;DHT22;51898;49.864;8.550;2023-06-04T13:31:19;26.30;25.60
10089;DHT22;51898;49.864;8.550;2023-06-04T13:34:21;26.40;25.80
10089;DHT22;51898;49.864;8.550;2023-06-04T13:37:28;26.50;25.70
10089;DHT22;51898;49.864;8.550;2023-06-04T13:40:30;26.50;25.70
10089;DHT22;51898;49.864;8.550;2023-06-04T13:43:32;26.40;25.80
10089;DHT22;51898;49.864;8.550;2023-06-04T13:46:33;26.10;26.00
10089;DHT22;51898;49.864;8.550;2023-06-04T13:49:35;26.10;25.60
10089;DHT22;51898;49.864;8.550;2023-06-04T13:52:37;26.00;25.50
10089;DHT22;51898;49.864;8.550;2023-06-04T13:55:39;25.90;25.10
10089;DHT22;51898;49.864;8.550;2023-06-04T13:58:40;25.90;24.90
10089;DHT22;51898;49.864;8.550;2023-06-04T14:01:42;25.80;25.00
10089;DHT22;51898;49.864;8.550;2023-06-04T14:04:44;25.70;25.10
10089;DHT22;51898;49.864;8.550;2023-06-04T14:07:45;25.70;25.40
10089;DHT22;51898;49.864;8.550;2023-06-04T14:10:47;25.50;25.50
10089;DHT22;51898;49.864;8.550;2023-06-04T14:13:48;25.40;26.10
10089;DHT22;51898;49.864;8.550;2023-06-04T14:16:50;25.40;26.30
10089;DHT22;51898;49.864;8.550;2023-06-04T14:19:52;25.50;26.40
10089;DHT22;51898;49.864;8.550;2023-06-04T14:22:53;25.40;26.70
10089;DHT22;51898;49.864;8.550;2023-06-04T14:25:55;25.30;26.10
10089;DHT22;51898;49.864;8.550;2023-06-04T14:28:57;25.40;26.50
10089;DHT22;51898;49.864;8.550;2023-06-04T14:31:59;25.40;26.70
10089;DHT22;51898;49.864;8.550;2023-06-04T14:35:00;25.40;26.90
10089;DHT22;51898;49.864;8.550;2023-06-04T14:38:02;25.40;27.20
10089;DHT22;51898;49.864;8.550;2023-06-04T14:41:04;25.50;27.50
10089;DHT22;51898;49.864;8.550;2023-06-04T14:44:06;25.80;27.20
10089;DHT22;51898;49.864;8.550;2023-06-04T14:47:07;25.80;27.10
10089;DHT22;51898;49.864;8.550;2023-06-04T14:50:09;26.00;27.90
10089;DHT22;51898;49.864;8.550;2023-06-04T14:53:11;26.30;27.30
10089;DHT22;51898;49.864;8.550;2023-06-04T14:56:14;26.20;26.90
10089;DHT22;51898;49.864;8.550;2023-06-04T14:59:15;26.00;26.50
10089;DHT22;51898;49.864;8.550;2023-06-04T15:02:17;25.80;26.80
10089;DHT22;51898;49.864;8.550;2023-06-04T15:05:21;25.70;27.30
10089;DHT22;51898;49.864;8.550;2023-06-04T15:08:23;26.10;27.00
10089;DHT22;51898;49.864;8.550;2023-06-04T15:11:24;26.30;26.80
10089;DHT22;51898;49.864;8.550;2023-06-04T15:14:26;26.20;26.70
10089;DHT22;51898;49.864;8.550;2023-06-04T15:17:28;26.00;26.50
10089;DHT22;51898;49.864;8.550;2023-06-04T15:20:30;26.20;26.70
10089;DHT22;51898;49.864;8.550;2023-06-04T15:23:32;26.50;26.50
10089;DHT22;51898;49.864;8.550;2023-06-04T15:26:33;26.80;25.80
10089;DHT22;51898;49.864;8.550;2023-06-04T15:29:35;27.20;25.30
10089;DHT22;51898;49.864;8.550;2023-06-04T15:32:37;27.10;25.60
10089;DHT22;51898;49.864;8.550;2023-06-04T15:35:39;26.90;25.90
10089;DHT22;51898;49.864;8.550;2023-06-04T15:38:40;26.90;26.00
10089;DHT22;51898;49.864;8.550;2023-06-04T15:41:42;27.00;26.10
10089;DHT22;51898;49.864;8.550;2023-06-04T15:44:44;27.10;25.80
10089;DHT22;51898;49.864;8.550;2023-06-04T15:47:45;27.40;25.60
10089;DHT22;51898;49.864;8.550;2023-06-04T15:50:47;28.10;25.10
10089;DHT22;51898;49.864;8.550;2023-06-04T15:53:49;28.50;24.50
10089;DHT22;51898;49.864;8.550;2023-06-04T15:56:51;28.30;24.50
10089;DHT22;51898;49.864;8.550;2023-06-04T15:59:52;28.60;24.80
10089;DHT22;51898;49.864;8.550;2023-06-04T16:02:54;28.60;24.90
10089;DHT22;51898;49.864;8.550;2023-06-04T16:05:56;28.60;24.20
10089;DHT22;51898;49.864;8.550;2023-06-04T16:08:57;28.80;24.40
10089;DHT22;51898;49.864;8.550;2023-06-04T16:11:59;29.10;24.30
10089;DHT22;51898;49.864;8.550;2023-06-04T16:15:01;29.70;19.50
10089;DHT22;51898;49.864;8.550;2023-06-04T16:18:03;29.70;19.50
10089;DHT22;51898;49.864;8.550;2023-06-04T16:21:04;29.70;19.50
10089;DHT22;51898;49.864;8.550;2023-06-04T16:24:06;29.60;19.70
10089;DHT22;51898;49.864;8.550;2023-06-04T16:27:08;29.70;19.70
10089;DHT22;51898;49.864;8.550;2023-06-04T16:30:10;29.80;19.50
10089;DHT22;51898;49.864;8.550;2023-06-04T16:33:11;30.10;19.50
10089;DHT22;51898;49.864;8.550;2023-06-04T16:36:13;30.70;19.20
10089;DHT22;51898;49.864;8.550;2023-06-04T16:39:15;31.10;18.50
10089;DHT22;51898;49.864;8.550;2023-06-04T16:42:16;31.60;18.40
10089;DHT22;51898;49.864;8.550;2023-06-04T16:45:19;32.20;18.30
10089;DHT22;51898;49.864;8.550;2023-06-04T16:48:21;32.00;18.50
10089;DHT22;51898;49.864;8.550;2023-06-04T16:51:22;32.00;18.20
10089;DHT22;51898;49.864;8.550;2023-06-04T16:54:24;31.30;18.70
10089;DHT22;51898;49.864;8.550;2023-06-04T16:57:26;31.40;18.80
10089;DHT22;51898;49.864;8.550;2023-06-04T17:00:27;30.90;18.80
10089;DHT22;51898;49.864;8.550;2023-06-04T17:03:29;30.70;19.10
10089;DHT22;51898;49.864;8.550;2023-06-04T17:06:31;31.00;18.90
10089;DHT22;51898;49.864;8.550;2023-06-04T17:09:33;31.30;18.60
10089;DHT22;51898;49.864;8.550;2023-06-04T17:12:35;31.90;18.60
10089;DHT22;51898;49.864;8.550;2023-06-04T17:15:38;31.40;18.70
10089;DHT22;51898;49.864;8.550;2023-06-04T17:18:39;31.10;19.00
10089;DHT22;51898;49.864;8.550;2023-06-04T17:21:41;31.20;19.00
10089;DHT22;51898;49.864;8.550;2023-06-04T17:24:43;30.70;19.40
10089;DHT22;51898;49.864;8.550;2023-06-04T17:27:45;30.80;19.70
10089;DHT22;51898;49.864;8.550;2023-06-04T17:30:49;30.10;19.90
10089;DHT22;51898;49.864;8.550;2023-06-04T17:33:51;29.40;24.30
10089;DHT22;51898;49.864;8.550;2023-06-04T17:36:52;29.50;24.40
10089;DHT22;51898;49.864;8.550;2023-06-04T17:39:54;29.60;24.50
10089;DHT22;51898;49.864;8.550;2023-06-04T17:42:56;29.50;24.50
10089;DHT22;51898;49.864;8.550;2023-06-04T17:45:58;29.20;24.80
10089;DHT22;51898;49.864;8.550;2023-06-04T17:49:00;29.00;25.00
10089;DHT22;51898;49.864;8.550;2023-06-04T17:52:04;28.70;25.30
10089;DHT22;51898;49.864;8.550;2023-06-04T17:55:06;28.40;25.90
10089;DHT22;51898;49.864;8.550;2023-06-04T17:58:08;28.30;26.00
10089;DHT22;51898;49.864;8.550;2023-06-04T18:01:10;28.20;26.20
10089;DHT22;51898;49.864;8.550;2023-06-04T18:04:11;28.10;26.50
10089;DHT22;51898;49.864;8.550;2023-06-04T18:07:14;28.00;26.70
10089;DHT22;51898;49.864;8.550;2023-06-04T18:10:16;28.20;27.00
10089;DHT22;51898;49.864;8.550;2023-06-04T18:13:17;28.20;26.50
10089;DHT22;51898;49.864;8.550;2023-06-04T18:16:19;28.10;26.10
10089;DHT22;51898;49.864;8.550;2023-06-04T18:19:21;28.10;26.20
10089;DHT22;51898;49.864;8.550;2023-06-04T18:22:22;28.00;26.10
10089;DHT22;51898;49.864;8.550;2023-06-04T18:25:24;27.40;26.50
10089;DHT22;51898;49.864;8.550;2023-06-04T18:28:27;27.20;26.90
10089;DHT22;51898;49.864;8.550;2023-06-04T18:31:28;27.10;26.90
10089;DHT22;51898;49.864;8.550;2023-06-04T18:34:30;26.60;27.40
10089;DHT22;51898;49.864;8.550;2023-06-04T18:37:32;26.30;27.90
10089;DHT22;51898;49.864;8.550;2023-06-04T18:40:34;26.10;28.20
10089;DHT22;51898;49.864;8.550;2023-06-04T18:43:39;25.90;28.60
10089;DHT22;51898;49.864;8.550;2023-06-04T18:46:40;25.50;29.00
10089;DHT22;51898;49.864;8.550;2023-06-04T18:49:42;24.90;29.60
10089;DHT22;51898;49.864;8.550;2023-06-04T18:52:44;24.40;30.10
10089;DHT22;51898;49.864;8.550;2023-06-04T18:55:45;24.10;30.60
10089;DHT22;51898;49.864;8.550;2023-06-04T18:58:47;23.70;31.20
10089;DHT22;51898;49.864;8.550;2023-06-04T19:01:53;23.40;31.40
10089;DHT22;51898;49.864;8.550;2023-06-04T19:04:56;23.30;31.70
10089;DHT22;51898;49.864;8.550;2023-06-04T19:07:57;23.00;32.00
10089;DHT22;51898;49.864;8.550;2023-06-04T19:10:59;22.90;32.10
10089;DHT22;51898;49.864;8.550;2023-06-04T19:14:01;22.70;32.30
10089;DHT22;51898;49.864;8.550;2023-06-04T19:17:03;22.60;32.60